createdAt,value
2023-02-24T00:02:05.706Z,38.28
2023-02-24T00:04:41.072Z,47.13
2023-02-24T00:07:10.891Z,44.40
2023-02-24T00:09:39.889Z,46.40
2023-02-24T00:12:10.281Z,43.83
2023-02-24T00:14:39.524Z,45.63
2023-02-24T00:17:09.844Z,46.72
2023-02-24T00:19:37.695Z,45.45
2023-02-24T00:22:08.137Z,48.88
2023-02-24T00:24:38.059Z,50.55
2023-02-24T00:27:14.446Z,48.08
2023-02-24T00:29:45.892Z,49.20
2023-02-24T00:32:13.906Z,55.72
2023-02-24T00:34:41.417Z,58.92
2023-02-24T00:37:08.750Z,54.80
2023-02-24T00:39:36.481Z,59.58
2023-02-24T00:42:08.200Z,57.55
2023-02-24T00:44:40.507Z,57.22
2023-02-24T00:47:08.964Z,57.20
2023-02-24T00:49:41.937Z,57.28
2023-02-24T00:52:13.871Z,57.03
2023-02-24T00:54:44.611Z,62.53
2023-02-24T00:57:14.644Z,59.03
2023-02-24T00:59:47.414Z,59.97
2023-02-24T01:02:15.189Z,61.03
2023-02-24T01:04:44.168Z,59.08
2023-02-24T01:07:11.613Z,61.72
2023-02-24T01:09:39.742Z,56.80
2023-02-24T01:12:18.238Z,57.50
2023-02-24T01:14:49.328Z,59.60
2023-02-24T01:17:18.336Z,56.60
2023-02-24T01:19:47.271Z,59.28
2023-02-24T01:22:15.459Z,56.47
2023-02-24T01:24:43.770Z,58.70
2023-02-24T01:27:13.176Z,62.97
2023-02-24T01:29:43.372Z,57.33
2023-02-24T01:32:20.004Z,61.60
2023-02-24T01:34:52.150Z,60.42
2023-02-24T01:37:19.482Z,55.10
2023-02-24T01:39:46.912Z,57.80
2023-02-24T01:42:18.440Z,62.42
2023-02-24T01:44:45.067Z,63.20
2023-02-24T01:47:16.123Z,60.20
2023-02-24T01:49:45.136Z,55.13
2023-02-24T01:52:19.465Z,55.95
2023-02-24T01:55:10.634Z,54.50
2023-02-24T01:57:40.464Z,60.58
2023-02-24T02:00:11.204Z,59.65
2023-02-24T02:02:46.356Z,61.30
2023-02-24T02:05:14.606Z,55.30
2023-02-24T02:07:43.382Z,61.67
2023-02-24T02:10:11.279Z,59.92
2023-02-24T02:12:44.202Z,61.75
2023-02-24T02:15:14.358Z,57.33
2023-02-24T02:18:10.168Z,59.10
2023-02-24T02:20:55.790Z,64.15
2023-02-24T02:24:04.446Z,57.38
2023-02-24T02:26:49.148Z,55.47
2023-02-24T02:29:53.028Z,58.88
2023-02-24T02:33:08.503Z,64.83
2023-02-24T02:35:46.311Z,60.47
2023-02-24T02:38:54.804Z,55.90
2023-02-24T02:41:48.968Z,57.17
2023-02-24T02:44:32.265Z,54.85
2023-02-24T02:47:08.985Z,52.80
2023-02-24T02:49:43.981Z,58.30
2023-02-24T02:52:15.451Z,55.08
2023-02-24T02:54:45.374Z,61.47
2023-02-24T02:57:31.796Z,61.38
2023-02-24T03:00:21.407Z,62.45
2023-02-24T03:02:51.936Z,59.30
2023-02-24T03:05:29.570Z,58.47
2023-02-24T03:07:59.103Z,57.55
2023-02-24T03:10:29.105Z,58.53
2023-02-24T03:13:05.345Z,54.40
2023-02-24T03:15:34.197Z,55.78
2023-02-24T03:18:10.227Z,57.58
2023-02-24T03:20:42.896Z,55.42
2023-02-24T03:23:29.114Z,58.83
2023-02-24T03:26:18.976Z,57.83
2023-02-24T03:29:06.344Z,58.90
2023-02-24T03:32:09.091Z,57.53
2023-02-24T03:35:04.442Z,58.70
2023-02-24T03:37:33.540Z,60.80
2023-02-24T03:40:11.707Z,59.08
2023-02-24T03:42:44.316Z,57.88
2023-02-24T03:45:11.942Z,56.13
2023-02-24T03:47:40.652Z,60.25
2023-02-24T03:50:19.686Z,57.63
2023-02-24T03:53:12.146Z,58.78
2023-02-24T03:55:58.585Z,57.45
2023-02-24T03:58:47.225Z,51.97
2023-02-24T04:01:25.457Z,59.83
2023-02-24T04:04:09.925Z,60.08
2023-02-24T04:06:44.480Z,63.72
2023-02-24T04:09:26.106Z,60.08
2023-02-24T04:11:52.767Z,60.28
2023-02-24T04:14:38.784Z,60.70
2023-02-24T04:17:19.180Z,60.33
2023-02-24T04:19:49.022Z,62.28
2023-02-24T04:22:19.051Z,58.30
2023-02-24T04:24:50.267Z,61.30
2023-02-24T04:27:18.427Z,63.38
2023-02-24T04:29:55.455Z,52.40
2023-02-24T04:32:26.825Z,55.55
2023-02-24T04:35:00.707Z,55.05
2023-02-24T04:40:10.637Z,53.85
2023-02-24T04:42:46.455Z,60.17
2023-02-24T04:45:16.597Z,55.30
2023-02-24T04:47:49.475Z,63.03
2023-02-24T04:50:23.915Z,54.77
2023-02-24T04:53:03.071Z,55.92
2023-02-24T04:55:37.861Z,60.42
2023-02-24T04:58:04.516Z,54.65
2023-02-24T05:00:35.785Z,52.42
2023-02-24T05:03:04.959Z,51.03
2023-02-24T05:05:35.095Z,57.60
2023-02-24T05:08:10.312Z,53.90
2023-02-24T05:10:45.712Z,52.08
2023-02-24T05:13:21.748Z,54.78
2023-02-24T05:15:49.664Z,52.95
2023-02-24T05:18:20.290Z,57.47
2023-02-24T05:21:08.485Z,56.85
2023-02-24T05:23:39.334Z,52.00
2023-02-24T05:26:10.595Z,50.45
2023-02-24T05:28:40.553Z,46.15
2023-02-24T05:31:16.387Z,52.72
2023-02-24T05:33:44.870Z,58.33
2023-02-24T05:36:17.104Z,54.78
2023-02-24T05:38:45.933Z,55.83
2023-02-24T05:41:18.125Z,53.65
2023-02-24T05:43:53.003Z,54.10
2023-02-24T05:46:29.432Z,55.20
2023-02-24T05:48:57.465Z,57.00
2023-02-24T05:51:35.110Z,55.65
2023-02-24T05:54:07.415Z,54.55
2023-02-24T05:56:38.647Z,55.88
2023-02-24T05:59:08.879Z,55.53
2023-02-24T06:01:38.229Z,55.75
2023-02-24T06:04:07.222Z,58.45
2023-02-24T06:06:41.906Z,57.40
2023-02-24T06:09:13.753Z,57.08
2023-02-24T06:11:42.096Z,59.00
2023-02-24T06:14:10.771Z,60.20
2023-02-24T06:16:39.939Z,61.80
2023-02-24T06:19:08.665Z,62.22
2023-02-24T06:21:43.865Z,55.58
2023-02-24T06:24:14.594Z,59.53
2023-02-24T06:26:45.933Z,58.10
2023-02-24T06:29:17.729Z,59.33
2023-02-24T06:31:48.603Z,63.72
2023-02-24T06:34:18.435Z,66.05
2023-02-24T06:36:46.914Z,63.10
2023-02-24T06:39:14.421Z,59.22
2023-02-24T06:41:42.555Z,59.03
2023-02-24T06:44:09.588Z,58.47
2023-02-24T06:46:37.070Z,57.38
2023-02-24T06:49:04.146Z,60.38
2023-02-24T06:51:30.942Z,62.72
2023-02-24T06:53:59.390Z,60.38
2023-02-24T06:56:27.369Z,65.32
2023-02-24T06:58:56.284Z,68.70
2023-02-24T07:01:29.869Z,64.13
2023-02-24T07:04:08.043Z,63.85
2023-02-24T07:06:41.115Z,63.22
2023-02-24T07:09:13.990Z,67.10
2023-02-24T07:11:44.545Z,61.60
2023-02-24T07:14:14.953Z,65.75
2023-02-24T07:16:45.578Z,64.38
2023-02-24T07:19:16.123Z,69.28
2023-02-24T07:21:49.813Z,70.30
2023-02-24T07:24:32.983Z,59.83
2023-02-24T07:27:02.244Z,64.03
2023-02-24T07:29:33.189Z,66.97
2023-02-24T07:32:03.431Z,66.65
2023-02-24T07:34:34.283Z,68.72
2023-02-24T07:37:08.079Z,77.57
2023-02-24T07:39:39.785Z,71.60
2023-02-24T07:42:10.693Z,63.83
2023-02-24T07:44:38.902Z,63.75
2023-02-24T07:47:08.100Z,68.68
2023-02-24T07:49:35.994Z,68.75
2023-02-24T07:52:02.988Z,75.10
2023-02-24T07:54:30.576Z,70.93
2023-02-24T07:56:59.149Z,70.03
2023-02-24T07:59:29.128Z,69.22
2023-02-24T08:01:56.981Z,71.88
2023-02-24T08:04:30.231Z,72.60
2023-02-24T08:07:01.286Z,66.25
2023-02-24T08:09:45.261Z,61.38
2023-02-24T08:14:51.522Z,68.93
2023-02-24T08:17:23.525Z,69.55
2023-02-24T08:20:11.938Z,65.88
2023-02-24T08:22:43.782Z,74.07
2023-02-24T08:25:18.352Z,68.20
2023-02-24T08:28:08.066Z,70.38
2023-02-24T08:30:40.758Z,73.80
2023-02-24T08:33:10.344Z,62.17
2023-02-24T08:35:44.595Z,72.53
2023-02-24T08:38:15.964Z,65.97
2023-02-24T08:40:52.045Z,63.67
2023-02-24T08:43:46.339Z,67.80
2023-02-24T08:46:21.431Z,61.65
2023-02-24T08:48:57.561Z,68.25
2023-02-24T08:51:43.825Z,72.50
2023-02-24T08:54:27.009Z,70.68
2023-02-24T08:56:56.601Z,65.43
2023-02-24T08:59:40.332Z,68.15
2023-02-24T09:02:24.458Z,75.18
2023-02-24T09:07:28.372Z,60.80
2023-02-24T09:10:01.986Z,68.70
2023-02-24T09:12:30.065Z,74.72
2023-02-24T09:15:05.573Z,69.85
2023-02-24T09:17:45.618Z,83.63
2023-02-24T09:20:27.375Z,72.80
2023-02-24T09:23:08.960Z,66.15
2023-02-24T09:25:41.467Z,71.10
2023-02-24T09:28:19.890Z,71.28
2023-02-24T09:30:55.689Z,69.20
2023-02-24T09:33:43.180Z,77.07
2023-02-24T09:36:20.864Z,72.75
2023-02-24T09:38:59.574Z,74.65
2023-02-24T09:41:45.180Z,67.00
2023-02-24T09:44:23.796Z,77.25
2023-02-24T09:46:57.836Z,81.25
2023-02-24T09:49:39.921Z,79.55
2023-02-24T09:52:16.967Z,77.68
2023-02-24T09:55:07.269Z,74.05
2023-02-24T09:57:55.182Z,78.38
2023-02-24T10:00:33.368Z,76.20
2023-02-24T10:03:19.543Z,74.80
2023-02-24T10:05:59.939Z,71.70
2023-02-24T10:08:34.238Z,70.72
2023-02-24T10:11:06.998Z,72.20
2023-02-24T10:13:46.421Z,65.13
2023-02-24T10:16:23.795Z,60.35
2023-02-24T10:19:31.087Z,67.93
2023-02-24T10:22:23.043Z,60.28
2023-02-24T10:25:01.368Z,70.82
2023-02-24T10:27:44.381Z,63.45
2023-02-24T10:30:27.892Z,57.33
2023-02-24T10:33:01.881Z,57.65
2023-02-24T10:35:33.667Z,53.65
2023-02-24T10:38:06.189Z,59.10
2023-02-24T10:40:46.933Z,57.95
2023-02-24T10:43:30.227Z,60.72
2023-02-24T10:46:17.107Z,53.58
2023-02-24T10:49:00.832Z,51.35
2023-02-24T10:51:46.892Z,48.55
2023-02-24T10:54:44.765Z,44.47
2023-02-24T10:57:18.738Z,44.85
2023-02-24T11:02:56.512Z,39.40
2023-02-24T11:05:47.327Z,38.35
2023-02-24T11:08:36.907Z,39.75
2023-02-24T11:11:29.816Z,35.90
2023-02-24T11:14:25.152Z,37.20
2023-02-24T11:17:13.091Z,32.45
2023-02-24T11:19:56.746Z,41.28
2023-02-24T11:22:34.751Z,34.35
2023-02-24T11:25:08.746Z,27.92
2023-02-24T11:27:35.636Z,21.88
2023-02-24T11:30:43.237Z,29.17
2023-02-24T11:33:17.412Z,33.08
2023-02-24T11:36:20.529Z,27.25
2023-02-24T11:39:15.243Z,23.05
2023-02-24T11:41:50.942Z,27.05
2023-02-24T11:44:29.609Z,30.15
2023-02-24T11:47:07.205Z,24.55
2023-02-24T11:49:42.282Z,25.70
2023-02-24T11:52:28.365Z,30.52
2023-02-24T11:55:00.584Z,26.60
2023-02-24T11:57:37.651Z,25.83
2023-02-24T12:00:20.490Z,24.75
2023-02-24T12:02:53.442Z,26.20
2023-02-24T12:05:25.291Z,28.50
2023-02-24T12:08:09.282Z,24.45
2023-02-24T12:10:47.325Z,27.50
2023-02-24T12:13:53.159Z,26.75
2023-02-24T12:16:25.742Z,30.60
2023-02-24T12:19:00.839Z,25.42
2023-02-24T12:21:43.982Z,27.48
2023-02-24T12:24:16.914Z,25.33
2023-02-24T12:26:55.746Z,24.43
2023-02-24T12:29:49.411Z,23.42
2023-02-24T12:32:47.262Z,26.23
2023-02-24T12:35:39.492Z,41.20
2023-02-24T12:38:35.590Z,34.63
2023-02-24T12:41:29.853Z,32.60
2023-02-24T12:44:29.087Z,27.05
2023-02-24T12:47:36.312Z,29.67
2023-02-24T12:50:28.972Z,29.40
2023-02-24T12:53:09.010Z,28.45
2023-02-24T12:56:02.692Z,32.08
2023-02-24T12:58:34.686Z,28.83
2023-02-24T13:01:24.828Z,37.47
2023-02-24T13:04:03.894Z,37.78
2023-02-24T13:06:40.335Z,32.17
2023-02-24T13:09:22.222Z,36.33
2023-02-24T13:12:08.670Z,38.47
2023-02-24T13:14:38.141Z,39.55
2023-02-24T13:17:10.724Z,37.35
2023-02-24T13:19:43.277Z,33.92
2023-02-24T13:22:21.139Z,29.45
2023-02-24T13:25:06.754Z,29.25
2023-02-24T13:27:42.234Z,29.45
2023-02-24T13:30:18.284Z,30.90
2023-02-24T13:33:00.568Z,30.90
2023-02-24T13:35:27.232Z,34.13
2023-02-24T13:37:54.429Z,29.55
2023-02-24T13:40:28.745Z,29.55
2023-02-24T13:43:00.342Z,31.00
2023-02-24T13:45:39.799Z,28.35
2023-02-24T13:48:28.243Z,30.40
2023-02-24T13:51:22.527Z,27.02
2023-02-24T13:56:37.894Z,23.25
2023-02-24T13:59:26.449Z,26.65
2023-02-24T14:02:10.941Z,26.80
2023-02-24T14:04:44.742Z,23.48
2023-02-24T14:07:17.867Z,20.52
2023-02-24T14:09:52.137Z,24.88
2023-02-24T14:12:25.944Z,23.58
2023-02-24T14:17:28.460Z,21.42
2023-02-24T14:20:07.500Z,21.05
2023-02-24T14:22:43.136Z,27.20
2023-02-24T14:25:14.114Z,24.20
2023-02-24T14:27:45.301Z,23.85
2023-02-24T14:30:31.466Z,23.17
2023-02-24T14:33:01.554Z,26.38
2023-02-24T14:35:47.839Z,25.27
2023-02-24T14:38:37.687Z,26.65
2023-02-24T14:41:19.850Z,22.95
2023-02-24T14:43:46.795Z,25.85
2023-02-24T14:46:13.694Z,29.58
2023-02-24T14:48:40.470Z,25.80
2023-02-24T14:51:19.791Z,24.73
2023-02-24T14:53:52.564Z,25.45
2023-02-24T14:56:28.675Z,25.05
2023-02-24T14:59:06.473Z,27.20
2023-02-24T15:01:36.865Z,24.35
2023-02-24T15:04:15.454Z,22.25
2023-02-24T15:06:43.979Z,30.02
2023-02-24T15:09:20.989Z,25.95
2023-02-24T15:11:48.783Z,27.92
2023-02-24T15:14:32.164Z,23.55
2023-02-24T15:17:15.327Z,23.70
2023-02-24T15:19:48.790Z,23.90
2023-02-24T15:22:33.621Z,31.23
2023-02-24T15:25:28.141Z,28.60
2023-02-24T15:28:05.480Z,29.85
2023-02-24T15:30:38.676Z,26.95
2023-02-24T15:33:20.285Z,25.85
2023-02-24T15:35:56.495Z,28.88
2023-02-24T15:38:31.374Z,28.15
2023-02-24T15:41:01.005Z,28.10
2023-02-24T15:43:53.126Z,24.40
2023-02-24T15:46:29.775Z,30.27
2023-02-24T15:49:03.073Z,28.80
2023-02-24T15:51:37.805Z,55.47
2023-02-24T15:54:20.220Z,30.48
2023-02-24T15:56:48.733Z,27.95
2023-02-24T15:59:17.348Z,22.85
2023-02-24T16:01:44.928Z,29.40
2023-02-24T16:04:11.647Z,25.05
2023-02-24T16:06:43.381Z,31.33
2023-02-24T16:09:15.605Z,30.50
2023-02-24T16:11:45.575Z,32.20
2023-02-24T16:14:18.976Z,29.95
2023-02-24T16:16:45.967Z,28.52
2023-02-24T16:19:18.028Z,33.75
2023-02-24T16:21:44.711Z,31.42
2023-02-24T16:24:12.204Z,29.58
2023-02-24T16:26:40.461Z,33.17
2023-02-24T16:29:11.627Z,30.98
2023-02-24T16:31:42.546Z,26.42
2023-02-24T16:34:14.750Z,33.88
2023-02-24T16:36:43.442Z,28.33
2023-02-24T16:39:14.255Z,28.23
2023-02-24T16:41:40.986Z,30.08
2023-02-24T16:44:07.910Z,24.15
2023-02-24T16:46:41.232Z,19.67
2023-02-24T16:49:13.373Z,17.77
2023-02-24T16:51:42.683Z,20.08
2023-02-24T16:54:09.664Z,19.02
2023-02-24T16:56:36.482Z,19.92
2023-02-24T16:59:03.360Z,18.30
2023-02-24T17:01:33.850Z,18.20
2023-02-24T17:04:00.762Z,20.65
2023-02-24T17:06:29.859Z,20.13
2023-02-24T17:08:59.100Z,15.13
2023-02-24T17:11:27.809Z,17.90
2023-02-24T17:13:54.589Z,24.98
2023-02-24T17:16:21.815Z,28.40
2023-02-24T17:18:50.899Z,25.92
2023-02-24T17:21:22.450Z,27.95
2023-02-24T17:23:49.419Z,28.63
2023-02-24T17:26:16.672Z,33.85
2023-02-24T17:28:46.015Z,29.58
2023-02-24T17:31:15.041Z,31.17
2023-02-24T17:33:44.344Z,35.83
2023-02-24T17:36:13.378Z,33.65
2023-02-24T17:38:40.242Z,30.05
2023-02-24T17:41:09.835Z,32.17
2023-02-24T17:43:38.867Z,29.15
2023-02-24T17:46:07.297Z,31.42
2023-02-24T17:48:35.118Z,35.40
2023-02-24T17:51:04.041Z,36.90
2023-02-24T17:53:31.257Z,32.72
2023-02-24T17:56:03.342Z,36.25
2023-02-24T17:58:30.886Z,30.58
2023-02-24T18:00:57.646Z,29.63
2023-02-24T18:03:24.710Z,32.70
2023-02-24T18:06:03.590Z,30.30
2023-02-24T18:08:31.705Z,26.77
2023-02-24T18:10:59.170Z,30.48
2023-02-24T18:13:26.963Z,34.58
2023-02-24T18:15:53.790Z,33.03
2023-02-24T18:18:20.625Z,30.65
2023-02-24T18:20:49.550Z,34.10
2023-02-24T18:23:18.746Z,34.03
2023-02-24T18:25:45.462Z,31.63
2023-02-24T18:28:12.260Z,34.65
2023-02-24T18:30:39.778Z,32.08
2023-02-24T18:33:06.836Z,40.38
2023-02-24T18:35:33.712Z,33.97
2023-02-24T18:38:02.848Z,35.08
2023-02-24T18:40:32.082Z,35.65
2023-02-24T18:42:58.794Z,32.22
2023-02-24T18:45:28.038Z,39.55
2023-02-24T18:47:54.834Z,35.60
2023-02-24T18:50:25.049Z,39.50
2023-02-24T18:52:52.027Z,34.88
2023-02-24T18:55:19.685Z,36.60
2023-02-24T18:57:48.915Z,41.70
2023-02-24T19:00:16.066Z,40.42
2023-02-24T19:02:42.996Z,36.38
2023-02-24T19:05:10.172Z,35.20
2023-02-24T19:07:36.887Z,39.20
2023-02-24T19:10:04.960Z,40.70
2023-02-24T19:12:34.119Z,39.60
2023-02-24T19:15:03.248Z,38.92
2023-02-24T19:17:34.886Z,37.38
2023-02-24T19:20:01.615Z,38.88
2023-02-24T19:22:28.553Z,34.53
2023-02-24T19:24:58.580Z,37.28
2023-02-24T19:27:25.337Z,31.88
2023-02-24T19:29:54.432Z,38.35
2023-02-24T19:32:26.030Z,33.17
2023-02-24T19:34:52.836Z,34.30
2023-02-24T19:37:19.618Z,33.78
2023-02-24T19:39:46.309Z,38.10
2023-02-24T19:42:15.504Z,29.05
2023-02-24T19:44:42.283Z,33.60
2023-02-24T19:47:13.685Z,30.15
2023-02-24T19:49:45.109Z,24.30
2023-02-24T19:52:11.886Z,24.90
2023-02-24T19:54:38.620Z,21.38
2023-02-24T19:57:05.370Z,24.73
2023-02-24T19:59:34.341Z,24.27
2023-02-24T20:02:02.107Z,26.38
2023-02-24T20:04:31.127Z,21.13
2023-02-24T20:06:58.414Z,22.08
2023-02-24T20:09:29.984Z,24.02
2023-02-24T20:12:00.710Z,23.25
2023-02-24T20:14:30.600Z,21.35
2023-02-24T20:16:57.736Z,11.98
2023-02-24T20:19:29.745Z,10.98
2023-02-24T20:21:58.745Z,10.27
2023-02-24T20:24:25.712Z,6.43
2023-02-24T20:26:52.455Z,6.20
2023-02-24T20:29:23.392Z,5.10
2023-02-24T20:31:50.317Z,6.80
2023-02-24T20:34:17.706Z,9.50
2023-02-24T20:36:44.498Z,6.43
2023-02-24T20:39:14.115Z,6.90
2023-02-24T20:41:41.139Z,9.48
2023-02-24T20:44:08.574Z,3.72
2023-02-24T20:46:35.796Z,3.63
2023-02-24T20:49:10.156Z,5.30
2023-02-24T20:51:38.219Z,3.22
2023-02-24T20:54:09.434Z,6.28
2023-02-24T20:56:41.024Z,3.58
2023-02-24T20:59:15.277Z,4.55
2023-02-24T21:01:47.196Z,1.98
2023-02-24T21:04:18.817Z,4.72
2023-02-24T21:06:48.188Z,4.80
2023-02-24T21:09:16.055Z,5.72
2023-02-24T21:11:42.830Z,6.05
2023-02-24T21:14:17.136Z,4.38
2023-02-24T21:16:46.759Z,5.80
2023-02-24T21:19:13.762Z,5.28
2023-02-24T21:21:40.529Z,4.97
2023-02-24T21:24:09.985Z,3.60
2023-02-24T21:26:38.944Z,3.28
2023-02-24T21:29:05.735Z,4.30
2023-02-24T21:31:34.714Z,4.88
2023-02-24T21:34:01.524Z,3.75
2023-02-24T21:36:28.726Z,3.50
2023-02-24T21:38:55.751Z,2.65
2023-02-24T21:41:23.649Z,3.15
2023-02-24T21:44:00.456Z,5.95
2023-02-24T21:46:28.540Z,6.25
2023-02-24T21:49:01.733Z,5.00
2023-02-24T21:51:29.226Z,5.90
2023-02-24T21:53:57.338Z,8.25
2023-02-24T21:56:28.829Z,4.55
2023-02-24T21:59:00.338Z,6.80
2023-02-24T22:01:33.109Z,5.82
2023-02-24T22:04:02.346Z,4.10
2023-02-24T22:06:34.013Z,5.18
2023-02-24T22:09:02.288Z,6.55
2023-02-24T22:11:31.693Z,8.55
2023-02-24T22:14:00.775Z,8.30
2023-02-24T22:16:30.600Z,11.85
2023-02-24T22:18:57.432Z,8.38
2023-02-24T22:21:27.522Z,5.68
2023-02-24T22:23:58.403Z,5.95
2023-02-24T22:26:26.595Z,8.35
2023-02-24T22:28:54.213Z,8.48
2023-02-24T22:31:25.809Z,9.00
2023-02-24T22:33:52.644Z,8.65
2023-02-24T22:36:27.385Z,5.13
2023-02-24T22:38:58.815Z,5.38
2023-02-24T22:41:31.615Z,7.97
2023-02-24T22:43:58.864Z,6.55
2023-02-24T22:46:31.798Z,7.60
2023-02-24T22:48:58.782Z,13.43
2023-02-24T22:51:27.789Z,9.38
2023-02-24T22:53:55.107Z,8.02
2023-02-24T22:56:27.093Z,12.55
2023-02-24T22:58:54.289Z,7.68
2023-02-24T23:01:26.169Z,12.25
2023-02-24T23:03:53.479Z,10.02
2023-02-24T23:06:26.489Z,10.15
2023-02-24T23:08:54.334Z,13.15
2023-02-24T23:11:27.798Z,9.27
2023-02-24T23:13:56.023Z,12.07
2023-02-24T23:16:27.316Z,11.10
2023-02-24T23:18:56.157Z,13.70
2023-02-24T23:21:25.716Z,12.65
2023-02-24T23:23:57.022Z,10.60
2023-02-24T23:26:36.555Z,9.32
2023-02-24T23:29:03.882Z,12.20
2023-02-24T23:31:30.817Z,11.20
2023-02-24T23:34:06.744Z,8.63
2023-02-24T23:36:34.990Z,13.30
2023-02-24T23:39:02.955Z,13.02
2023-02-24T23:41:29.675Z,10.18
2023-02-24T23:43:56.313Z,12.45
2023-02-24T23:46:23.468Z,8.27
2023-02-24T23:48:54.454Z,8.23
2023-02-24T23:51:21.247Z,8.93
2023-02-24T23:53:49.994Z,7.68
2023-02-24T23:56:25.509Z,13.02
2023-02-24T23:58:57.308Z,13.35
